createdAt,value
2023-03-22T00:00:30.626Z,86.86
2023-03-22T00:04:42.880Z,86.64
2023-03-22T00:08:54.938Z,86.64
2023-03-22T00:13:08.487Z,86.50
2023-03-22T00:17:20.145Z,86.52
2023-03-22T00:21:31.703Z,86.27
2023-03-22T00:25:47.539Z,86.47
2023-03-22T00:29:59.207Z,86.10
2023-03-22T00:34:11.615Z,85.90
2023-03-22T00:38:39.552Z,86.13
2023-03-22T00:42:53.144Z,86.27
2023-03-22T00:47:05.128Z,86.29
2023-03-22T00:51:17.280Z,86.37
2023-03-22T00:55:28.980Z,86.13
2023-03-22T00:59:42.954Z,85.94
2023-03-22T01:03:55.069Z,86.04
2023-03-22T01:08:08.634Z,85.92
2023-03-22T01:12:20.602Z,85.91
2023-03-22T01:16:32.485Z,85.99
2023-03-22T01:20:44.148Z,86.02
2023-03-22T01:24:55.954Z,85.89
2023-03-22T01:29:07.548Z,85.84
2023-03-22T01:33:19.796Z,86.13
2023-03-22T01:37:32.608Z,86.13
2023-03-22T01:41:44.494Z,86.44
2023-03-22T01:46:00.038Z,86.34
2023-03-22T01:50:15.091Z,86.55
2023-03-22T01:54:34.649Z,86.62
2023-03-22T01:58:55.046Z,86.32
2023-03-22T02:03:18.239Z,86.47
2023-03-22T02:07:32.185Z,86.54
2023-03-22T02:12:07.678Z,86.74
2023-03-22T02:16:58.925Z,87.27
2023-03-22T02:21:40.498Z,87.23
2023-03-22T02:26:32.719Z,87.82
2023-03-22T02:31:12.032Z,87.98
2023-03-22T02:35:48.812Z,88.44
2023-03-22T02:40:27.031Z,88.33
2023-03-22T02:45:01.463Z,88.36
2023-03-22T02:49:31.093Z,89.00
2023-03-22T02:53:47.950Z,88.91
2023-03-22T02:58:18.891Z,89.03
2023-03-22T03:02:32.555Z,88.90
2023-03-22T03:06:48.864Z,88.97
2023-03-22T03:11:01.411Z,88.91
2023-03-22T03:15:20.328Z,89.21
2023-03-22T03:19:52.153Z,89.09
2023-03-22T03:24:31.733Z,89.18
2023-03-22T03:28:49.829Z,89.20
2023-03-22T03:33:09.965Z,89.02
2023-03-22T03:37:31.675Z,89.11
2023-03-22T03:41:46.778Z,89.65
2023-03-22T03:45:58.611Z,89.60
2023-03-22T03:50:12.871Z,89.48
2023-03-22T03:54:24.753Z,89.52
2023-03-22T03:58:37.175Z,89.37
2023-03-22T04:02:49.011Z,89.52
2023-03-22T04:07:20.512Z,89.47
2023-03-22T04:11:32.321Z,89.46
2023-03-22T04:15:46.676Z,89.53
2023-03-22T04:20:00.024Z,89.80
2023-03-22T04:24:13.709Z,89.93
2023-03-22T04:28:27.554Z,89.90
2023-03-22T04:32:39.618Z,90.10
2023-03-22T04:36:51.817Z,90.09
2023-03-22T04:41:14.788Z,89.78
2023-03-22T04:45:32.496Z,89.63
2023-03-22T04:49:46.747Z,89.99
2023-03-22T04:54:01.092Z,90.16
2023-03-22T04:58:13.833Z,89.81
2023-03-22T05:02:25.705Z,90.03
2023-03-22T05:06:38.825Z,90.08
2023-03-22T05:10:59.085Z,90.14
2023-03-22T05:15:11.181Z,90.64
2023-03-22T05:19:24.547Z,90.21
2023-03-22T05:23:36.976Z,90.40
2023-03-22T05:27:50.440Z,90.31
2023-03-22T05:32:25.704Z,90.07
2023-03-22T05:36:39.596Z,90.00
2023-03-22T05:40:59.448Z,89.68
2023-03-22T05:45:14.465Z,89.67
2023-03-22T05:49:28.251Z,89.82
2023-03-22T05:53:41.639Z,89.66
2023-03-22T05:58:06.373Z,89.73
2023-03-22T06:02:21.813Z,89.77
2023-03-22T06:06:33.543Z,89.73
2023-03-22T06:10:52.877Z,89.82
2023-03-22T06:15:05.370Z,89.64
2023-03-22T06:19:19.840Z,89.31
2023-03-22T06:23:31.799Z,89.04
2023-03-22T06:27:43.595Z,88.73
2023-03-22T06:31:55.196Z,88.83
2023-03-22T06:36:07.223Z,88.16
2023-03-22T06:40:41.708Z,87.74
2023-03-22T06:44:53.734Z,87.43
2023-03-22T06:49:16.903Z,87.58
2023-03-22T06:53:29.101Z,87.56
2023-03-22T06:57:41.146Z,86.61
2023-03-22T07:01:54.424Z,82.96
2023-03-22T07:06:08.603Z,81.47
2023-03-22T07:10:23.275Z,80.79
2023-03-22T07:14:35.499Z,80.25
2023-03-22T07:19:05.953Z,80.43
2023-03-22T07:23:18.923Z,80.82
2023-03-22T07:27:35.321Z,80.38
2023-03-22T07:31:47.802Z,80.56
2023-03-22T07:36:28.804Z,80.17
2023-03-22T07:40:40.820Z,80.38
2023-03-22T07:44:53.114Z,80.32
2023-03-22T07:49:04.859Z,80.07
2023-03-22T07:53:36.697Z,80.24
2023-03-22T07:57:48.637Z,80.17
2023-03-22T08:02:00.630Z,80.02
2023-03-22T08:06:21.606Z,79.81
2023-03-22T08:10:33.549Z,79.96
2023-03-22T08:14:50.451Z,79.54
2023-03-22T08:19:06.736Z,79.35
2023-03-22T08:23:28.804Z,78.92
2023-03-22T08:28:13.317Z,78.40
2023-03-22T08:32:25.462Z,77.33
2023-03-22T08:36:37.910Z,76.96
2023-03-22T08:40:50.109Z,76.77
2023-03-22T08:45:07.415Z,76.25
2023-03-22T08:49:22.136Z,75.17
2023-03-22T08:53:42.168Z,74.44
2023-03-22T08:58:22.828Z,74.27
2023-03-22T09:02:37.687Z,72.02
2023-03-22T09:06:49.681Z,70.78
2023-03-22T09:11:02.235Z,69.91
2023-03-22T09:15:15.529Z,69.52
2023-03-22T09:19:31.728Z,69.30
2023-03-22T09:23:47.700Z,69.33
2023-03-22T09:28:01.243Z,68.98
2023-03-22T09:32:12.945Z,68.32
2023-03-22T09:36:25.785Z,68.38
2023-03-22T09:40:51.450Z,68.36
2023-03-22T09:45:05.944Z,68.05
2023-03-22T09:49:22.951Z,68.43
2023-03-22T09:53:34.816Z,68.50
2023-03-22T09:57:54.754Z,68.75
2023-03-22T10:02:18.563Z,69.48
2023-03-22T10:06:31.695Z,69.74
2023-03-22T10:10:43.744Z,70.00
2023-03-22T10:15:12.827Z,70.25
2023-03-22T10:19:31.183Z,70.40
2023-03-22T10:23:52.392Z,70.96
2023-03-22T10:28:27.340Z,72.38
2023-03-22T10:32:57.150Z,72.63
2023-03-22T10:37:16.607Z,73.37
2023-03-22T10:41:29.508Z,73.99
2023-03-22T10:45:42.643Z,74.95
2023-03-22T10:49:57.166Z,76.33
2023-03-22T10:54:17.425Z,76.70
2023-03-22T10:58:34.827Z,78.01
2023-03-22T11:03:00.242Z,78.44
2023-03-22T11:07:25.950Z,78.63
2023-03-22T11:11:51.521Z,79.00
2023-03-22T11:16:04.388Z,79.29
2023-03-22T11:20:19.084Z,79.42
2023-03-22T11:24:33.205Z,80.15
2023-03-22T11:28:50.854Z,80.19
2023-03-22T11:33:17.813Z,80.30
2023-03-22T11:37:29.711Z,80.15
2023-03-22T11:41:41.634Z,80.10
2023-03-22T11:45:58.025Z,79.79
2023-03-22T11:50:29.001Z,79.54
2023-03-22T11:54:42.786Z,79.09
2023-03-22T11:59:00.056Z,78.64
2023-03-22T12:03:17.851Z,78.76
2023-03-22T12:07:31.581Z,78.57
2023-03-22T12:11:52.212Z,78.82
2023-03-22T12:16:07.431Z,78.66
2023-03-22T12:20:53.403Z,78.08
2023-03-22T12:25:12.512Z,78.71
2023-03-22T12:29:27.048Z,78.42
2023-03-22T12:33:45.520Z,78.09
2023-03-22T12:38:00.066Z,78.16
2023-03-22T12:42:27.413Z,78.21
2023-03-22T12:46:57.289Z,77.96
2023-03-22T12:51:14.760Z,77.69
2023-03-22T12:55:32.174Z,77.95
2023-03-22T12:59:49.189Z,77.86
2023-03-22T13:04:32.611Z,78.03
2023-03-22T13:09:26.507Z,77.96
2023-03-22T13:13:46.809Z,77.72
2023-03-22T13:17:59.108Z,77.39
2023-03-22T13:22:21.217Z,77.79
2023-03-22T13:26:48.254Z,77.08
2023-03-22T13:31:00.025Z,76.85
2023-03-22T13:35:24.062Z,76.84
2023-03-22T13:39:39.317Z,76.62
2023-03-22T13:43:54.207Z,76.98
2023-03-22T13:48:29.017Z,77.09
2023-03-22T13:52:46.125Z,77.05
2023-03-22T13:57:01.008Z,76.88
2023-03-22T14:01:36.994Z,76.94
2023-03-22T14:05:56.704Z,77.09
2023-03-22T14:10:32.913Z,77.47
2023-03-22T14:14:49.208Z,77.99
2023-03-22T14:19:02.687Z,78.36
